aviador You're here:

CYMM Decoded Metar

FORT MCMURRAY in AB, CANADA
Report Time2018-07-22 12:24:00
UTC Time2018-07-22 12:41:42
Flight Rules vfr VFR
Wind300° at 12 Gusting to 17 kt
W.Decomp.*RWY 25: 10.1 kt HW 6.5 kt RCW
W.Rank300° ranks 14
Current wind is above 300° avg. (7.9)
Visibility9999 m
Phenomena:N/A
Clouds:Scattered 008 Hf
Expected CloudBase > 400 ft AGL from Temp-Dew spread
CeilingNone
Temp13°C (ISA 0)
Dew Point12°C (94% RH)
AAT9.3°C
QNH1010 hPa
Density Alt1,555 ft
Elevation1,211 ft
Report Wrong Elevation
Raw Report
SPECI CYMM 221224Z AUTO 30012G17KT 9SM SCT008 13/12 A2984 RMK SLP115
DENSITY ALT 1300FT=

Extra information for CYMM:More info

Metar Taf Metar & Taf Last 4 Metars F.Rules Stats Wind Profile Meteogram Temp Stats Airport Information Weather charts Add Link Nearby VenuesMetar ALERT Operation Metar Decoded Social comments